Time;durP1;ratioP1;P1;durP2;ratioP2;P2;SDS_P1;SDS_P2;PMS_P1;PMS_P2;Temp;Humidity;BMP_temperature;BMP_pressure;BME280_temperature;BME280_humidity;BME280_pressure;Samples;Min_cycle;Max_cycle;Signal;HPM_P1;HPM_P2
2023/06/18 00:02:27;;;;;;;;;;;;;;;30.40;28.47;94063.41;5057582;28;7286;-61
2023/06/18 00:04:55;;;;;;;;;;;;;;;30.37;28.10;94056.16;5013888;28;7021;-61
2023/06/18 00:07:49;;;;;;;;;;;;;;;30.37;27.95;94066.53;5013812;28;8621;-61
2023/06/18 00:10:28;;;;;;;;;;;;;;;30.34;28.75;94057.25;4977078;28;7234;-61
2023/06/18 00:12:54;;;;;;;;;;;;;;;30.35;28.47;94053.19;4981626;28;8990;-61
2023/06/18 00:15:20;;;;;;;;;;;;;;;30.34;28.42;94054.47;4964515;28;7555;-61
2023/06/18 00:17:51;;;;;;;;;;;;;;;30.34;28.33;94057.25;4980664;28;7271;-61
2023/06/18 00:20:28;;;;;;;;;;;;;;;30.32;27.58;94057.06;4980979;28;7058;-61
2023/06/18 00:23:18;;;;;;;;;;;;;;;30.35;27.92;94060.78;4980872;28;7254;-61
2023/06/18 00:25:57;;;;;;;;;;;;;;;30.34;28.20;94048.22;4963202;28;8723;-61
2023/06/18 00:28:23;;;;;;;;;;;;;;;30.32;28.54;94048.03;4972793;28;8777;-61
2023/06/18 00:30:50;;;;;;;;;;;;;;;30.33;27.64;94052.25;4979535;28;7110;-61
2023/06/18 00:33:36;;;;;;;;;;;;;;;30.32;28.60;94057.06;4976899;28;9056;-61
2023/06/18 00:36:33;;;;;;;;;;;;;;;30.33;27.82;94060.59;4980324;28;7128;-61
2023/06/18 00:39:29;;;;;;;;;;;;;;;30.32;28.53;94059.84;4981170;28;7035;-61
2023/06/18 00:41:56;;;;;;;;;;;;;;;30.29;28.28;94049.84;4977565;28;7065;-61
2023/06/18 00:44:39;;;;;;;;;;;;;;;30.28;27.59;94055.91;4965554;28;8059;-61
2023/06/18 00:47:27;;;;;;;;;;;;;;;30.29;28.12;94055.38;5002825;28;7043;-60
2023/06/18 00:50:05;;;;;;;;;;;;;;;30.27;28.40;94054.44;5013649;28;9178;-60
2023/06/18 00:52:38;;;;;;;;;;;;;;;30.29;27.75;94060.19;5009555;28;7210;-61
2023/06/18 00:55:07;;;;;;;;;;;;;;;30.29;28.21;94060.94;5023205;28;9436;-61
2023/06/18 00:57:49;;;;;;;;;;;;;;;30.25;28.37;94066.09;5012192;28;7017;-61
2023/06/18 01:00:28;;;;;;;;;;;;;;;30.27;28.21;94071.84;5022036;28;7192;-61
2023/06/18 01:02:59;;;;;;;;;;;;;;;30.24;28.39;94055.53;5037167;28;9266;-61
2023/06/18 01:05:51;;;;;;;;;;;;;;;30.26;28.44;94059.25;5021475;28;7056;-61
2023/06/18 01:08:33;;;;;;;;;;;;;;;30.24;28.49;94059.06;5011684;28;7046;-61
2023/06/18 01:11:09;;;;;;;;;;;;;;;30.25;28.27;94057.03;5008851;28;7035;-62
2023/06/18 01:13:41;;;;;;;;;;;;;;;30.23;27.86;94057.56;5010073;28;7246;-62
2023/06/18 01:16:13;;;;;;;;;;;;;;;30.21;27.91;94054.59;5021606;28;8692;-61
2023/06/18 01:19:01;;;;;;;;;;;;;;;30.21;27.70;94068.47;5019866;28;7277;-61
2023/06/18 01:22:06;;;;;;;;;;;;;;;30.22;28.67;94067.19;5021125;28;7290;-61
2023/06/18 01:24:50;;;;;;;;;;;;;;;30.21;27.78;94064.97;4980348;28;7288;-61
2023/06/18 01:27:21;;;;;;;;;;;;;;;30.19;28.60;94068.28;4979971;28;7229;-61
2023/06/18 01:29:57;;;;;;;;;;;;;;;30.18;28.46;94061.25;4979108;28;7109;-61
2023/06/18 01:32:38;;;;;;;;;;;;;;;30.18;28.34;94061.25;4979222;28;7148;-61
2023/06/18 01:35:07;;;;;;;;;;;;;;;30.18;28.10;94055.72;4979356;28;7046;-61
2023/06/18 01:38:32;;;;;;;;;;;;;;;30.19;28.65;94053.69;4978255;28;7700;-61
2023/06/18 01:41:02;;;;;;;;;;;;;;;30.18;27.56;94052.19;4921429;29;7156;-61
2023/06/18 01:43:53;;;;;;;;;;;;;;;30.16;28.60;94049.22;4903685;29;8691;-61
2023/06/18 01:46:30;;;;;;;;;;;;;;;30.14;27.82;94049.78;4898857;29;7351;-61
2023/06/18 01:49:04;;;;;;;;;;;;;;;30.15;27.40;94050.50;4906859;29;7045;-61
2023/06/18 01:51:56;;;;;;;;;;;;;;;30.13;27.62;94053.09;4902712;29;7054;-61
2023/06/18 01:54:32;;;;;;;;;;;;;;;30.11;28.27;94056.41;4904766;29;9020;-61
2023/06/18 01:57:17;;;;;;;;;;;;;;;30.10;27.87;94049.38;4903939;29;9607;-61
2023/06/18 01:59:50;;;;;;;;;;;;;;;30.10;28.12;94051.44;4923802;28;9002;-61
2023/06/18 02:02:26;;;;;;;;;;;;;;;30.08;28.66;94040.84;4970737;28;9384;-61
2023/06/18 02:05:06;;;;;;;;;;;;;;;30.09;28.05;94056.22;4970484;28;7062;-61
2023/06/18 02:07:50;;;;;;;;;;;;;;;30.09;27.38;94059.00;4954800;28;9193;-61
2023/06/18 02:10:42;;;;;;;;;;;;;;;30.10;28.76;94054.91;4954287;28;9126;-61
2023/06/18 02:13:22;;;;;;;;;;;;;;;30.09;28.18;94053.44;4955292;28;9148;-61
2023/06/18 02:15:59;;;;;;;;;;;;;;;30.06;27.53;94054.53;5051962;28;9055;-61
2023/06/18 02:18:31;;;;;;;;;;;;;;;30.07;27.96;94056.03;5037166;28;9105;-61
2023/06/18 02:21:07;;;;;;;;;;;;;;;30.04;27.87;94056.38;5031879;28;9077;-62
2023/06/18 02:23:53;;;;;;;;;;;;;;;30.03;27.71;94061.19;5038194;28;7016;-61
2023/06/18 02:26:21;;;;;;;;;;;;;;;30.00;27.69;94062.28;5011555;28;7229;-61
2023/06/18 02:29:01;;;;;;;;;;;;;;;29.99;27.78;94049.72;5017179;28;7092;-61
2023/06/18 02:31:27;;;;;;;;;;;;;;;30.02;28.06;94054.16;5010943;28;9424;-61
2023/06/18 02:33:53;;;;;;;;;;;;;;;29.99;28.75;94048.97;5010740;28;7036;-61
2023/06/18 02:36:29;;;;;;;;;;;;;;;29.97;28.00;94041.19;5053004;28;9127;-61
2023/06/18 02:39:27;;;;;;;;;;;;;;;29.96;28.68;94048.03;5009281;28;7326;-61
2023/06/18 02:42:50;;;;;;;;;;;;;;;29.98;28.65;94047.47;4967518;28;7426;-62
2023/06/18 02:45:26;;;;;;;;;;;;;;;29.97;28.60;94046.00;4905008;29;7360;-62
2023/06/18 02:47:54;;;;;;;;;;;;;;;29.92;28.83;94044.13;4898152;29;7228;-62
2023/06/18 02:50:21;;;;;;;;;;;;;;;29.94;28.63;94047.84;4907954;29;8769;-62
2023/06/18 02:52:47;;;;;;;;;;;;;;;29.95;28.10;94045.81;4911846;29;7293;-62
2023/06/18 02:55:24;;;;;;;;;;;;;;;29.95;28.35;94054.84;4892596;29;8612;-62
2023/06/18 02:58:29;;;;;;;;;;;;;;;29.94;27.88;94053.38;4888027;29;7237;-62
2023/06/18 03:01:45;;;;;;;;;;;;;;;29.94;27.76;94052.63;4905339;29;8794;-62
2023/06/18 03:04:19;;;;;;;;;;;;;;;29.92;28.65;94044.88;4872529;29;7273;-62
2023/06/18 03:06:58;;;;;;;;;;;;;;;29.92;28.17;94050.44;4859299;29;9074;-62
2023/06/18 03:09:33;;;;;;;;;;;;;;;29.92;28.39;94055.97;4869512;29;7030;-62
2023/06/18 03:11:58;;;;;;;;;;;;;;;29.88;28.33;94050.03;4859711;29;7031;-62
2023/06/18 03:14:27;;;;;;;;;;;;;;;29.88;28.96;94050.03;4863581;29;7230;-63
2023/06/18 03:16:57;;;;;;;;;;;;;;;29.89;28.38;94053.53;4883132;29;9104;-62
2023/06/18 03:19:26;;;;;;;;;;;;;;;29.90;29.09;94058.56;4948151;29;9430;-62
2023/06/18 03:22:05;;;;;;;;;;;;;;;29.89;28.27;94054.28;4955298;28;7039;-62
2023/06/18 03:24:41;;;;;;;;;;;;;;;29.86;28.02;94055.41;4987144;28;9115;-62
2023/06/18 03:27:26;;;;;;;;;;;;;;;29.85;28.68;94053.91;4972798;28;7096;-62
2023/06/18 03:30:03;;;;;;;;;;;;;;;29.85;28.20;94055.91;4990540;28;9050;-62
2023/06/18 03:33:04;;;;;;;;;;;;;;;29.85;28.97;94062.22;4989189;28;9370;-62
2023/06/18 03:35:46;;;;;;;;;;;;;;;29.85;28.16;94056.66;4954876;28;9015;-62
2023/06/18 03:38:13;;;;;;;;;;;;;;;29.84;28.32;94060.00;4937725;28;8081;-62
2023/06/18 03:40:52;;;;;;;;;;;;;;;29.83;28.40;94055.72;4965698;28;7310;-62
2023/06/18 03:43:30;;;;;;;;;;;;;;;29.83;28.18;94056.47;5006422;28;8187;-62
2023/06/18 03:46:09;;;;;;;;;;;;;;;29.79;28.22;94056.84;5007200;28;7075;-62
2023/06/18 03:48:47;;;;;;;;;;;;;;;29.80;28.63;94061.09;4974458;28;9074;-62
2023/06/18 03:51:16;;;;;;;;;;;;;;;29.79;28.67;94058.88;4987876;28;8781;-62
2023/06/18 03:54:03;;;;;;;;;;;;;;;29.79;28.36;94064.41;4990017;28;7070;-62
2023/06/18 03:56:47;;;;;;;;;;;;;;;29.78;29.27;94063.66;5006351;28;7320;-62
2023/06/18 03:59:28;;;;;;;;;;;;;;;29.78;28.68;94054.59;4984305;28;8843;-62
2023/06/18 04:02:05;;;;;;;;;;;;;;;29.82;28.66;94054.97;4974187;28;7279;-62
2023/06/18 04:04:31;;;;;;;;;;;;;;;29.83;28.84;94048.16;4973784;28;8092;-62
2023/06/18 04:07:02;;;;;;;;;;;;;;;29.82;28.01;94043.16;5002778;28;7378;-62
2023/06/18 04:09:28;;;;;;;;;;;;;;;29.77;28.20;94042.78;4991647;28;7314;-62
2023/06/18 04:11:54;;;;;;;;;;;;;;;29.80;29.19;94052.00;5019142;28;7278;-62
2023/06/18 04:14:20;;;;;;;;;;;;;;;29.78;28.99;94049.81;5009232;28;6922;-62
2023/06/18 04:16:48;;;;;;;;;;;;;;;29.79;28.34;94047.78;5017428;28;7663;-62
2023/06/18 04:19:14;;;;;;;;;;;;;;;29.80;28.09;94052.75;5027211;28;7048;-61
2023/06/18 04:21:48;;;;;;;;;;;;;;;29.77;27.80;94050.34;5004156;28;6999;-62
2023/06/18 04:24:16;;;;;;;;;;;;;;;29.79;28.38;94050.53;5010211;28;7112;-62
2023/06/18 04:26:42;;;;;;;;;;;;;;;29.76;28.40;94051.63;5012165;28;9078;-61
2023/06/18 04:29:08;;;;;;;;;;;;;;;29.78;28.70;94052.56;5017061;28;9579;-62
2023/06/18 04:31:35;;;;;;;;;;;;;;;29.78;28.47;94051.81;5018709;28;9008;-61
2023/06/18 04:34:01;;;;;;;;;;;;;;;29.77;28.12;94053.88;5036292;28;8735;-61
2023/06/18 04:36:27;;;;;;;;;;;;;;;29.77;28.75;94055.91;5020856;28;7595;-61
2023/06/18 04:38:53;;;;;;;;;;;;;;;29.74;28.86;94051.44;5019823;28;9018;-61
2023/06/18 04:41:19;;;;;;;;;;;;;;;29.74;29.23;94043.88;5036874;28;7030;-61
2023/06/18 04:43:48;;;;;;;;;;;;;;;29.75;29.02;94047.38;5018970;28;9140;-61
2023/06/18 04:46:14;;;;;;;;;;;;;;;29.75;28.02;94047.38;5017688;28;7089;-61
2023/06/18 04:48:43;;;;;;;;;;;;;;;29.75;28.49;94047.38;5018961;28;7142;-61
2023/06/18 04:51:09;;;;;;;;;;;;;;;29.73;28.83;94044.41;5014654;28;7048;-61
2023/06/18 04:53:37;;;;;;;;;;;;;;;29.70;28.74;94037.16;5023993;28;8248;-61
2023/06/18 04:56:08;;;;;;;;;;;;;;;29.71;28.71;94042.16;5049327;28;7150;-61
2023/06/18 04:58:39;;;;;;;;;;;;;;;29.72;28.30;94037.34;5016149;28;9120;-62
2023/06/18 05:01:09;;;;;;;;;;;;;;;29.71;28.23;94035.88;5023635;28;9056;-61
2023/06/18 05:03:36;;;;;;;;;;;;;;;29.71;28.85;94033.13;5008835;28;7190;-61
2023/06/18 05:06:02;;;;;;;;;;;;;;;29.70;28.27;94029.59;5025857;28;9174;-61
2023/06/18 05:08:28;;;;;;;;;;;;;;;29.70;28.37;94028.84;5008337;28;7298;-61
2023/06/18 05:10:54;;;;;;;;;;;;;;;29.70;27.83;94023.31;5016466;28;9049;-61
2023/06/18 05:13:23;;;;;;;;;;;;;;;29.69;28.45;94027.34;5033044;28;9524;-61
2023/06/18 05:15:50;;;;;;;;;;;;;;;29.70;28.95;94023.31;5014706;28;7876;-61
2023/06/18 05:18:18;;;;;;;;;;;;;;;29.69;28.28;94027.34;5009543;28;7284;-61
2023/06/18 05:20:45;;;;;;;;;;;;;;;29.70;28.52;94029.59;5048586;28;7324;-61
2023/06/18 05:23:19;;;;;;;;;;;;;;;29.69;28.84;94027.34;5033491;28;7116;-61
2023/06/18 05:25:45;;;;;;;;;;;;;;;29.67;28.26;94032.69;5016661;28;7028;-62
2023/06/18 05:28:13;;;;;;;;;;;;;;;29.73;28.54;94036.06;5024433;28;7044;-61
2023/06/18 05:30:39;;;;;;;;;;;;;;;29.73;28.12;94038.84;5015737;28;7043;-61
2023/06/18 05:33:05;;;;;;;;;;;;;;;29.72;29.25;94034.59;5007913;28;7185;-61
2023/06/18 05:35:33;;;;;;;;;;;;;;;29.74;29.34;94035.56;5032931;28;7336;-61
2023/06/18 05:37:59;;;;;;;;;;;;;;;29.69;29.02;94025.31;5050594;28;7035;-61
2023/06/18 05:40:27;;;;;;;;;;;;;;;29.72;28.19;94032.56;5008835;28;7213;-61
2023/06/18 05:43:28;;;;;;;;;;;;;;;29.76;29.41;94040.53;5035942;28;7079;-61
2023/06/18 05:45:54;;;;;;;;;;;;;;;29.76;28.19;94037.78;4970377;28;7226;-61
2023/06/18 05:48:46;;;;;;;;;;;;;;;29.75;28.91;94047.38;4979789;28;7377;-61
2023/06/18 05:51:22;;;;;;;;;;;;;;;29.77;29.37;94042.03;4971698;28;7053;-61
2023/06/18 05:53:49;;;;;;;;;;;;;;;29.75;28.71;94041.84;4980368;28;7702;-61
2023/06/18 05:56:26;;;;;;;;;;;;;;;29.75;29.65;94042.56;4962961;28;7403;-60
2023/06/18 05:58:54;;;;;;;;;;;;;;;29.76;29.55;94054.41;4964926;28;7642;-60
2023/06/18 06:01:22;;;;;;;;;;;;;;;29.77;29.65;94059.41;4975606;28;7120;-61
2023/06/18 06:04:13;;;;;;;;;;;;;;;29.76;28.79;94054.41;4955307;28;9059;-61
2023/06/18 06:06:40;;;;;;;;;;;;;;;29.75;28.46;94059.19;4978333;28;9016;-61
2023/06/18 06:09:23;;;;;;;;;;;;;;;29.74;28.88;94056.97;4971866;28;7272;-60
2023/06/18 06:11:58;;;;;;;;;;;;;;;29.77;29.01;94053.13;4976408;28;7240;-61
2023/06/18 06:14:24;;;;;;;;;;;;;;;29.77;29.57;94059.41;4967089;28;8992;-60
2023/06/18 06:17:04;;;;;;;;;;;;;;;29.76;29.23;94054.41;4974022;28;7230;-60
2023/06/18 06:19:30;;;;;;;;;;;;;;;29.75;29.58;94056.44;4974104;28;9386;-60
2023/06/18 06:21:57;;;;;;;;;;;;;;;29.75;29.00;94052.94;5012260;28;7034;-61
2023/06/18 06:24:23;;;;;;;;;;;;;;;29.76;29.26;94049.59;5018167;28;9016;-61
2023/06/18 06:26:49;;;;;;;;;;;;;;;29.76;29.09;94049.59;5049553;28;7249;-61
2023/06/18 06:29:48;;;;;;;;;;;;;;;29.77;29.71;94042.03;5015066;28;8809;-62
2023/06/18 06:32:16;;;;;;;;;;;;;;;29.78;29.14;94047.03;4967855;28;8708;-62
2023/06/18 06:34:51;;;;;;;;;;;;;;;29.79;28.67;94042.97;4964675;28;9345;-62
2023/06/18 06:37:32;;;;;;;;;;;;;;;29.79;29.36;94045.75;4969308;28;7292;-62
2023/06/18 06:40:10;;;;;;;;;;;;;;;29.82;29.40;94045.94;4968019;28;7319;-61
2023/06/18 06:42:36;;;;;;;;;;;;;;;29.81;29.57;94053.50;4951601;28;7003;-61
2023/06/18 06:45:12;;;;;;;;;;;;;;;29.82;29.06;94046.66;4956890;28;9101;-61
2023/06/18 06:47:41;;;;;;;;;;;;;;;29.84;29.81;94054.44;4975855;28;7645;-62
2023/06/18 06:50:14;;;;;;;;;;;;;;;29.84;29.60;94048.91;4962192;28;7226;-62
2023/06/18 06:52:40;;;;;;;;;;;;;;;29.83;29.63;94041.88;4961632;28;9023;-62
2023/06/18 06:55:11;;;;;;;;;;;;;;;29.86;29.41;94049.84;4976453;28;9474;-62
2023/06/18 06:57:40;;;;;;;;;;;;;;;29.84;29.71;94055.16;4956037;28;9000;-62
2023/06/18 07:00:08;;;;;;;;;;;;;;;29.83;29.76;94048.16;4977861;28;7316;-62
2023/06/18 07:02:39;;;;;;;;;;;;;;;29.86;29.97;94054.66;4976512;28;7215;-62
2023/06/18 07:05:18;;;;;;;;;;;;;;;29.87;29.55;94056.88;4981398;28;7251;-62
2023/06/18 07:08:20;;;;;;;;;;;;;;;29.87;30.09;94054.09;4983566;28;8772;-62
2023/06/18 07:10:58;;;;;;;;;;;;;;;29.88;29.04;94061.13;4966416;28;7260;-62
2023/06/18 07:13:35;;;;;;;;;;;;;;;29.86;29.90;94063.72;4963971;28;7006;-62
2023/06/18 07:16:04;;;;;;;;;;;;;;;29.86;29.93;94060.19;4960776;28;9056;-62
2023/06/18 07:18:40;;;;;;;;;;;;;;;29.81;29.00;94064.59;4943038;28;7242;-61
2023/06/18 07:21:07;;;;;;;;;;;;;;;29.84;30.26;94071.81;4963477;28;8945;-63
2023/06/18 07:23:46;;;;;;;;;;;;;;;29.84;30.15;94073.88;4966197;28;9046;-62
2023/06/18 07:26:13;;;;;;;;;;;;;;;29.83;29.31;94075.88;4959767;28;9097;-62
2023/06/18 07:28:49;;;;;;;;;;;;;;;29.85;30.06;94078.84;4952426;28;7232;-62
2023/06/18 07:31:46;;;;;;;;;;;;;;;29.84;29.84;94077.34;4964167;28;9297;-62
2023/06/18 07:34:25;;;;;;;;;;;;;;;29.85;29.35;94078.84;4885343;29;7677;-61
2023/06/18 07:36:51;;;;;;;;;;;;;;;29.84;29.92;94080.13;4888611;29;9085;-61
2023/06/18 07:39:17;;;;;;;;;;;;;;;29.87;30.08;94083.84;4871030;29;9004;-61
2023/06/18 07:41:53;;;;;;;;;;;;;;;29.83;29.61;94072.38;4865878;29;9278;-62
2023/06/18 07:44:21;;;;;;;;;;;;;;;29.85;30.25;94078.84;4886952;29;6981;-62
2023/06/18 07:46:52;;;;;;;;;;;;;;;29.85;29.85;94084.41;4922651;28;7035;-62
2023/06/18 07:49:29;;;;;;;;;;;;;;;29.87;30.05;94072.75;4939472;28;8739;-62
2023/06/18 07:51:58;;;;;;;;;;;;;;;29.85;30.42;94083.66;4912188;28;7355;-63
2023/06/18 07:54:26;;;;;;;;;;;;;;;29.83;30.12;94081.44;4931143;28;9093;-62
2023/06/18 07:57:06;;;;;;;;;;;;;;;29.84;29.97;94085.66;4931218;28;7900;-62
2023/06/18 08:00:26;;;;;;;;;;;;;;;29.85;30.57;94087.16;4917816;28;9170;-62
2023/06/18 08:02:52;;;;;;;;;;;;;;;29.82;30.13;94093.78;4880640;29;9040;-61
2023/06/18 08:05:50;;;;;;;;;;;;;;;29.84;30.72;94087.72;4880061;29;9145;-62
2023/06/18 08:08:18;;;;;;;;;;;;;;;29.82;29.56;94088.25;4861314;29;7027;-62
2023/06/18 08:10:53;;;;;;;;;;;;;;;29.84;30.19;94090.50;4939874;28;7073;-62
2023/06/18 08:13:29;;;;;;;;;;;;;;;29.78;30.32;94091.38;4963922;28;7274;-61
2023/06/18 08:16:27;;;;;;;;;;;;;;;29.81;30.01;94095.09;4953748;28;7221;-62
2023/06/18 08:19:05;;;;;;;;;;;;;;;29.78;30.83;94093.41;4946388;28;9049;-61
2023/06/18 08:21:32;;;;;;;;;;;;;;;29.78;30.88;94091.38;4966735;28;7080;-62
2023/06/18 08:24:27;;;;;;;;;;;;;;;29.76;30.34;94091.19;4964604;28;9663;-62
2023/06/18 08:26:58;;;;;;;;;;;;;;;29.77;30.70;94089.16;4955537;28;7273;-62
2023/06/18 08:29:24;;;;;;;;;;;;;;;29.76;29.79;94082.13;4961723;28;9108;-62
2023/06/18 08:32:28;;;;;;;;;;;;;;;29.79;30.29;94086.59;4966363;28;7102;-62
2023/06/18 08:35:06;;;;;;;;;;;;;;;29.77;29.81;94075.31;4953529;28;7263;-62
2023/06/18 08:37:35;;;;;;;;;;;;;;;29.81;29.98;94072.91;4965024;28;9081;-62
2023/06/18 08:40:24;;;;;;;;;;;;;;;29.82;30.24;94074.38;4971232;28;9076;-62
2023/06/18 08:42:51;;;;;;;;;;;;;;;29.83;30.07;94059.25;4988192;28;7574;-60
2023/06/18 08:45:19;;;;;;;;;;;;;;;29.85;30.30;94065.00;5016473;28;9200;-61
2023/06/18 08:47:57;;;;;;;;;;;;;;;29.86;30.62;94063.72;5011988;28;8165;-61
2023/06/18 08:50:27;;;;;;;;;;;;;;;29.87;29.82;94061.66;5049962;28;7089;-60
2023/06/18 08:53:11;;;;;;;;;;;;;;;29.87;30.21;94061.66;5021573;28;7313;-60
2023/06/18 08:55:40;;;;;;;;;;;;;;;29.83;30.37;94062.03;5009849;28;9888;-61
2023/06/18 08:58:12;;;;;;;;;;;;;;;29.84;29.81;94060.00;5028422;28;7023;-62
2023/06/18 09:00:39;;;;;;;;;;;;;;;29.84;30.07;94063.50;5016512;28;9478;-62
2023/06/18 09:03:05;;;;;;;;;;;;;;;29.87;29.46;94059.63;5018375;28;7047;-62
2023/06/18 09:05:34;;;;;;;;;;;;;;;29.87;30.17;94053.34;5033925;28;8928;-62
2023/06/18 09:08:04;;;;;;;;;;;;;;;29.88;30.67;94055.59;5030485;28;9072;-62
2023/06/18 09:10:40;;;;;;;;;;;;;;;29.90;30.61;94060.56;5018377;28;7238;-62
2023/06/18 09:13:13;;;;;;;;;;;;;;;29.93;30.34;94062.25;5031806;28;9068;-61
2023/06/18 09:16:12;;;;;;;;;;;;;;;29.92;29.68;94055.97;5028059;28;9018;-61
2023/06/18 09:18:42;;;;;;;;;;;;;;;29.94;30.43;94058.19;5032010;28;6955;-62
2023/06/18 09:21:10;;;;;;;;;;;;;;;29.94;30.89;94058.94;5022230;28;7261;-62
2023/06/18 09:24:05;;;;;;;;;;;;;;;29.96;30.64;94050.81;5023940;28;7253;-61
2023/06/18 09:26:43;;;;;;;;;;;;;;;29.97;30.79;94041.19;5031929;28;7330;-61
2023/06/18 09:29:14;;;;;;;;;;;;;;;29.95;30.84;94034.72;5011984;28;6865;-61
2023/06/18 09:31:47;;;;;;;;;;;;;;;29.97;30.01;94032.16;5010459;28;7671;-62
2023/06/18 09:34:25;;;;;;;;;;;;;;;29.98;30.96;94039.91;5018697;28;9014;-61
2023/06/18 09:36:55;;;;;;;;;;;;;;;29.98;29.97;94039.91;5020787;28;9099;-61
2023/06/18 09:39:53;;;;;;;;;;;;;;;29.98;30.64;94028.81;5019053;28;8745;-62
2023/06/18 09:42:31;;;;;;;;;;;;;;;29.98;30.85;94037.13;4967813;28;7048;-62
2023/06/18 09:45:14;;;;;;;;;;;;;;;29.97;31.12;94043.25;4946610;28;7165;-62
2023/06/18 09:47:50;;;;;;;;;;;;;;;29.97;30.94;94030.09;4950213;28;7105;-62
2023/06/18 09:50:18;;;;;;;;;;;;;;;30.01;31.09;94047.13;4947482;28;7295;-62
2023/06/18 09:52:57;;;;;;;;;;;;;;;30.02;31.46;94036.78;4967744;28;8055;-62
2023/06/18 09:55:35;;;;;;;;;;;;;;;30.00;31.28;94034.56;4948973;28;7041;-62
2023/06/18 09:58:08;;;;;;;;;;;;;;;30.05;30.35;94041.97;4965535;28;7038;-62
2023/06/18 10:01:03;;;;;;;;;;;;;;;30.06;31.09;94032.34;4953266;28;7303;-62
2023/06/18 10:03:29;;;;;;;;;;;;;;;30.10;30.75;94029.97;4896592;29;7076;-62
2023/06/18 10:06:30;;;;;;;;;;;;;;;30.16;30.73;94041.66;4912933;29;7294;-62
2023/06/18 10:09:10;;;;;;;;;;;;;;;30.13;29.67;94031.66;4893557;29;7107;-62
2023/06/18 10:11:38;;;;;;;;;;;;;;;30.14;29.21;94038.69;4890655;29;7339;-61
2023/06/18 10:14:11;;;;;;;;;;;;;;;30.15;29.20;94033.84;4893843;29;7026;-61
2023/06/18 10:17:02;;;;;;;;;;;;;;;30.18;29.60;94033.53;4893662;29;9171;-60
2023/06/18 10:19:37;;;;;;;;;;;;;;;30.23;30.25;94032.59;4893874;29;9391;-60
2023/06/18 10:22:36;;;;;;;;;;;;;;;30.20;29.54;94019.84;4910324;29;9453;-61
2023/06/18 10:25:05;;;;;;;;;;;;;;;30.23;29.76;94021.50;4888719;29;8752;-61
2023/06/18 10:27:43;;;;;;;;;;;;;;;30.23;29.90;94029.81;4857762;29;7914;-61
2023/06/18 10:30:13;;;;;;;;;;;;;;;30.22;29.52;94030.38;4854495;29;9415;-61
2023/06/18 10:32:50;;;;;;;;;;;;;;;30.25;29.94;94018.94;4890254;29;7460;-61
2023/06/18 10:35:28;;;;;;;;;;;;;;;30.26;29.58;94023.19;4862191;29;7558;-61
2023/06/18 10:38:06;;;;;;;;;;;;;;;30.26;30.10;94011.34;4878678;29;6955;-61
2023/06/18 10:41:10;;;;;;;;;;;;;;;30.26;30.90;94011.34;4892503;29;7435;-62
2023/06/18 10:43:55;;;;;;;;;;;;;;;30.23;29.26;94010.41;4941585;28;9708;-62
2023/06/18 10:53:26;;;;;;;;;;;;;;;30.34;29.04;94006.59;4964752;28;9169;-61
2023/06/18 10:56:01;;;;;;;;;;;;;;;30.35;28.98;94003.25;4959107;28;8823;-62
2023/06/18 11:02:00;;;;;;;;;;;;;;;30.38;29.45;93996.59;5000991;28;9089;-61
2023/06/18 11:04:31;;;;;;;;;;;;;;;30.41;29.10;94003.06;5020906;28;7352;-61
2023/06/18 11:07:23;;;;;;;;;;;;;;;30.44;28.74;93990.88;5019441;28;7052;-61
2023/06/18 11:09:53;;;;;;;;;;;;;;;30.48;28.94;93977.38;5035360;28;8245;-61
2023/06/18 11:12:29;;;;;;;;;;;;;;;30.53;29.48;93982.00;5017239;28;9062;-61
2023/06/18 11:15:15;;;;;;;;;;;;;;;30.57;29.46;93984.41;5017816;28;7060;-61
2023/06/18 11:17:53;;;;;;;;;;;;;;;30.61;28.55;93977.19;5029496;28;7480;-61
2023/06/18 11:20:26;;;;;;;;;;;;;;;30.64;28.18;93978.13;5016316;28;8095;-60
2023/06/18 11:22:59;;;;;;;;;;;;;;;30.64;28.86;93975.34;5010588;28;8729;-60
2023/06/18 11:25:27;;;;;;;;;;;;;;;30.69;28.77;93985.53;5005175;28;7210;-61
2023/06/18 11:27:58;;;;;;;;;;;;;;;30.67;27.60;93977.75;5004185;28;7075;-62
2023/06/18 11:30:27;;;;;;;;;;;;;;;30.67;28.16;93974.25;5043783;28;7078;-62
2023/06/18 11:33:03;;;;;;;;;;;;;;;30.65;27.86;93974.03;5036848;28;9055;-62
2023/06/18 11:35:32;;;;;;;;;;;;;;;30.67;27.95;93977.03;5032860;28;7076;-62
2023/06/18 11:37:58;;;;;;;;;;;;;;;30.61;28.22;93974.41;5023739;28;7131;-62
2023/06/18 11:41:24;;;;;;;;;;;;;;;30.61;27.36;93974.41;5041185;28;7245;-62
2023/06/18 11:44:09;;;;;;;;;;;;;;;30.64;28.26;93973.31;5044276;28;7280;-62
2023/06/18 11:46:46;;;;;;;;;;;;;;;30.66;28.11;93965.19;5015586;28;9427;-62
2023/06/18 11:49:23;;;;;;;;;;;;;;;30.67;28.21;93966.66;5036102;28;9202;-62
2023/06/18 11:51:59;;;;;;;;;;;;;;;30.68;28.47;93967.38;5060471;28;7058;-62
2023/06/18 11:54:40;;;;;;;;;;;;;;;30.64;27.60;93962.22;5018300;28;9516;-62
2023/06/18 11:57:20;;;;;;;;;;;;;;;30.67;28.55;93958.31;5043843;28;8814;-62
2023/06/18 12:00:08;;;;;;;;;;;;;;;30.65;27.64;93951.84;5043897;28;7594;-62
2023/06/18 12:02:39;;;;;;;;;;;;;;;30.68;28.02;93950.72;5015967;28;7034;-62
2023/06/18 12:05:08;;;;;;;;;;;;;;;30.73;28.55;93958.16;5021840;28;7903;-62
2023/06/18 12:07:44;;;;;;;;;;;;;;;30.71;28.36;93955.91;5029651;28;7247;-62
2023/06/18 12:10:19;;;;;;;;;;;;;;;30.70;28.93;93953.69;5035476;28;8850;-62
2023/06/18 12:12:57;;;;;;;;;;;;;;;30.74;28.74;93943.69;5027316;28;8195;-62
2023/06/18 12:15:39;;;;;;;;;;;;;;;30.76;27.67;93949.44;5013902;28;7027;-62
2023/06/18 12:18:22;;;;;;;;;;;;;;;30.76;27.26;93940.34;5054541;28;7088;-63
2023/06/18 12:21:07;;;;;;;;;;;;;;;30.77;27.86;93936.28;5037979;28;7284;-62
2023/06/18 12:23:56;;;;;;;;;;;;;;;30.73;27.92;93936.69;5054114;28;9193;-63
2023/06/18 12:26:30;;;;;;;;;;;;;;;30.75;27.61;93930.56;5043829;28;9081;-63
2023/06/18 12:29:18;;;;;;;;;;;;;;;30.77;27.04;93931.50;5044814;28;7489;-63
2023/06/18 12:32:09;;;;;;;;;;;;;;;30.76;27.72;93929.25;5045263;28;7253;-63
2023/06/18 12:34:48;;;;;;;;;;;;;;;30.80;27.68;93924.09;5057222;28;7259;-63
2023/06/18 12:37:14;;;;;;;;;;;;;;;30.77;28.64;93914.84;5040341;28;9705;-62
2023/06/18 12:40:02;;;;;;;;;;;;;;;30.79;28.23;93911.50;5041587;28;7026;-62
2023/06/18 12:42:36;;;;;;;;;;;;;;;30.80;28.14;93915.75;5040536;28;8653;-62
2023/06/18 12:45:07;;;;;;;;;;;;;;;30.82;27.82;93915.94;5016685;28;7474;-62
2023/06/18 12:47:48;;;;;;;;;;;;;;;30.85;28.53;93910.00;5014605;28;9519;-62
2023/06/18 12:50:43;;;;;;;;;;;;;;;30.86;27.69;93908.75;5031066;28;9399;-62
2023/06/18 12:53:34;;;;;;;;;;;;;;;30.91;27.61;93901.50;5022840;28;7903;-62
2023/06/18 12:56:44;;;;;;;;;;;;;;;30.93;28.17;93905.19;5043451;28;7285;-62
2023/06/18 12:59:23;;;;;;;;;;;;;;;30.94;27.49;93892.81;5057485;28;7239;-62
2023/06/18 13:02:02;;;;;;;;;;;;;;;30.93;27.11;93896.88;5016437;28;7038;-62
2023/06/18 13:04:45;;;;;;;;;;;;;;;31.01;26.57;93888.53;5020940;28;9031;-62
2023/06/18 13:07:19;;;;;;;;;;;;;;;31.06;27.33;93884.78;5038582;28;7518;-62
2023/06/18 13:10:20;;;;;;;;;;;;;;;31.10;25.60;93885.19;5040307;28;7203;-62
2023/06/18 13:13:03;;;;;;;;;;;;;;;31.14;26.36;93885.53;4954907;28;7466;-62
2023/06/18 13:15:33;;;;;;;;;;;;;;;31.16;26.52;93882.94;4980591;28;7027;-62
2023/06/18 13:17:59;;;;;;;;;;;;;;;31.18;27.07;93881.06;4977231;28;7223;-62
2023/06/18 13:20:38;;;;;;;;;;;;;;;31.21;25.66;93877.16;4952999;28;7130;-61
2023/06/18 13:23:18;;;;;;;;;;;;;;;31.25;26.65;93876.78;4974503;28;9146;-62
2023/06/18 13:25:44;;;;;;;;;;;;;;;31.27;26.43;93868.63;4972584;28;9240;-61
2023/06/18 13:28:10;;;;;;;;;;;;;;;31.29;27.02;93868.81;4974047;28;7041;-60
2023/06/18 13:31:01;;;;;;;;;;;;;;;31.33;27.12;93866.38;4978119;28;10145;-61
2023/06/18 13:33:28;;;;;;;;;;;;;;;31.39;26.86;93875.25;4980516;28;7554;-60
2023/06/18 13:35:55;;;;;;;;;;;;;;;31.40;26.64;93867.66;4975781;28;7305;-61
2023/06/18 13:38:22;;;;;;;;;;;;;;;31.43;26.77;93867.28;4953649;28;7036;-61
2023/06/18 13:41:03;;;;;;;;;;;;;;;31.44;27.21;93865.25;4976568;28;7184;-61
2023/06/18 13:43:45;;;;;;;;;;;;;;;31.39;26.92;93857.81;4979034;28;7036;-62
2023/06/18 13:46:49;;;;;;;;;;;;;;;31.40;26.34;93856.53;4939726;28;7117;-61
2023/06/18 13:49:21;;;;;;;;;;;;;;;31.42;27.03;93853.97;5009853;28;9117;-61
2023/06/18 13:51:53;;;;;;;;;;;;;;;31.43;26.77;93861.72;5055431;28;7291;-61
2023/06/18 13:54:21;;;;;;;;;;;;;;;31.42;26.89;93849.16;5033833;28;7046;-62
2023/06/18 13:56:48;;;;;;;;;;;;;;;31.44;26.81;93845.78;5014354;28;7292;-62
2023/06/18 13:59:17;;;;;;;;;;;;;;;31.45;26.58;93844.50;5037831;28;7209;-62